Time;durP1;ratioP1;P1;durP2;ratioP2;P2;SDS_P1;SDS_P2;PMS_P1;PMS_P2;Temp;Humidity;BMP_temperature;BMP_pressure;BME280_temperature;BME280_humidity;BME280_pressure;Samples;Min_cycle;Max_cycle;Signal;HPM_P1;HPM_P2
2022/02/01 00:00:10;;;;;;;;;;;;;;;26.69;24.56;96720.72;174092;28;934;-51
2022/02/01 00:00:23;;;;;;;;;;;;;;;26.70;24.81;96712.69;174724;28;1080;-50
2022/02/01 00:00:41;;;;;;;;;;;;;;;26.69;24.91;96715.44;174487;28;923;-51
2022/02/01 00:00:56;;;;;;;;;;;;;;;26.68;24.58;96719.91;174091;28;881;-50
2022/02/01 00:01:12;;;;;;;;;;;;;;;26.67;24.84;96714.78;174605;28;978;-50
2022/02/01 00:01:42;;;;;;;;;;;;;;;26.69;24.62;96718.09;174732;28;989;-51
2022/02/01 00:01:53;;;;;;;;;;;;;;;26.78;24.47;96713.72;174028;28;915;-50
2022/02/01 00:02:05;;;;;;;;;;;;;;;26.81;24.44;96713.44;174358;28;4538;-50
2022/02/01 00:02:16;;;;;;;;;;;;;;;26.79;24.52;96716.25;174066;28;896;-51
2022/02/01 00:02:35;;;;;;;;;;;;;;;26.81;24.55;96718.72;174028;28;798;-51
2022/02/01 00:02:48;;;;;;;;;;;;;;;26.84;24.43;96727.19;174546;28;1022;-48
2022/02/01 00:02:58;;;;;;;;;;;;;;;26.84;24.41;96715.78;174732;28;880;-50
2022/02/01 00:03:03;;;;;;;;;;;;;;;26.82;24.66;96710.66;173943;28;1129;-51
2022/02/01 00:03:14;;;;;;;;;;;;;;;26.75;24.78;96717.50;174075;28;865;-49
2022/02/01 00:03:21;;;;;;;;;;;;;;;26.73;24.58;96724.75;174063;28;892;-51
2022/02/01 00:03:29;;;;;;;;;;;;;;;26.74;24.58;96718.50;174299;28;1254;-50
2022/02/01 00:03:36;;;;;;;;;;;;;;;26.78;24.71;96714.59;174668;28;1010;-49
2022/02/01 00:03:45;;;;;;;;;;;;;;;26.78;24.51;96711.94;174253;28;809;-51
2022/02/01 00:03:54;;;;;;;;;;;;;;;26.79;24.50;96710.13;174430;28;1187;-48
2022/02/01 00:04:04;;;;;;;;;;;;;;;26.80;24.57;96717.06;174036;28;1060;-50
2022/02/01 00:04:17;;;;;;;;;;;;;;;26.83;24.53;96714.13;174741;28;887;-48
2022/02/01 00:05:44;;;;;;;;;;;;;;;26.83;24.81;96714.94;170000;29;980;-51
2022/02/01 00:05:48;;;;;;;;;;;;;;;26.84;24.91;96721.91;171399;28;1051;-50
2022/02/01 00:06:20;;;;;;;;;;;;;;;26.85;24.42;96715.63;171749;28;4315;-49
2022/02/01 00:07:40;;;;;;;;;;;;;;;26.74;24.60;96718.50;173823;28;899;-48
2022/02/01 00:08:06;;;;;;;;;;;;;;;26.73;24.69;96716.81;173930;28;887;-51
2022/02/01 00:08:28;;;;;;;;;;;;;;;26.76;24.47;96721.81;175540;28;849;-51
2022/02/01 00:08:42;;;;;;;;;;;;;;;26.77;24.51;96718.19;175027;28;1120;-49
2022/02/01 00:09:08;;;;;;;;;;;;;;;26.78;24.56;96708.44;175193;28;884;-51
2022/02/01 00:09:36;;;;;;;;;;;;;;;26.77;24.76;96723.47;175288;28;1145;-51
2022/02/01 00:09:53;;;;;;;;;;;;;;;26.80;24.51;96727.66;174288;28;1097;-51
2022/02/01 00:10:37;;;;;;;;;;;;;;;26.78;24.56;96719.00;174486;28;840;-51
2022/02/01 00:11:52;;;;;;;;;;;;;;;26.82;24.82;96717.75;174886;28;1159;-50
2022/02/01 00:12:16;;;;;;;;;;;;;;;26.76;24.89;96723.63;174138;28;1460;-50
2022/02/01 00:12:38;;;;;;;;;;;;;;;26.72;24.57;96712.53;174761;28;900;-52
2022/02/01 00:13:09;;;;;;;;;;;;;;;26.68;24.91;96717.25;174988;28;861;-50
2022/02/01 00:14:26;;;;;;;;;;;;;;;26.62;25.06;96717.88;174051;28;659;-48
2022/02/01 00:14:51;;;;;;;;;;;;;;;26.56;25.00;96705.25;173993;28;993;-49
2022/02/01 00:16:06;;;;;;;;;;;;;;;26.66;25.01;96716.59;174511;28;877;-48
2022/02/01 00:17:17;;;;;;;;;;;;;;;26.69;24.75;96705.69;174830;28;1014;-52
2022/02/01 00:19:08;;;;;;;;;;;;;;;26.62;25.02;96709.94;174754;28;580;-51
2022/02/01 00:19:38;;;;;;;;;;;;;;;26.61;24.74;96705.59;174038;28;955;-48
2022/02/01 00:20:04;;;;;;;;;;;;;;;26.65;24.75;96709.63;174441;28;1053;-50
2022/02/01 00:33:25;;;;;;;;;;;;;;;26.45;25.27;96734.50;174645;28;859;-49
2022/02/01 00:34:15;;;;;;;;;;;;;;;26.50;25.00;96737.53;173800;28;4260;-51
2022/02/01 00:35:01;;;;;;;;;;;;;;;26.59;24.83;96735.84;174731;28;873;-50
2022/02/01 00:35:22;;;;;;;;;;;;;;;26.60;24.82;96740.97;174778;28;852;-51
2022/02/01 00:36:31;;;;;;;;;;;;;;;26.67;24.67;96739.41;173302;28;1211;-51
2022/02/01 00:36:44;;;;;;;;;;;;;;;26.66;24.94;96745.69;173140;28;1132;-51
2022/02/01 00:36:53;;;;;;;;;;;;;;;26.69;24.67;96749.81;173243;28;1094;-50
2022/02/01 00:37:03;;;;;;;;;;;;;;;26.65;24.72;96748.47;173263;28;1058;-49
2022/02/01 00:37:14;;;;;;;;;;;;;;;26.66;25.03;96745.69;173105;28;1194;-50
2022/02/01 00:37:23;;;;;;;;;;;;;;;26.68;25.05;96748.16;173244;28;869;-49
2022/02/01 00:37:32;;;;;;;;;;;;;;;26.69;24.86;96742.72;173215;28;853;-51
2022/02/01 00:37:50;;;;;;;;;;;;;;;26.71;24.96;96742.59;173618;28;869;-51
2022/02/01 00:38:00;;;;;;;;;;;;;;;26.75;24.83;96746.59;172945;28;4428;-48
2022/02/01 00:38:22;;;;;;;;;;;;;;;26.76;24.77;96739.50;173126;28;908;-50
2022/02/01 00:38:37;;;;;;;;;;;;;;;26.77;24.90;96741.16;172490;28;849;-48
2022/02/01 00:38:57;;;;;;;;;;;;;;;26.79;24.82;96745.34;172713;28;1471;-51
2022/02/01 00:39:07;;;;;;;;;;;;;;;26.79;24.65;96741.88;172855;28;1056;-51
2022/02/01 00:39:14;;;;;;;;;;;;;;;26.78;24.64;96741.03;173371;28;861;-50
2022/02/01 00:39:28;;;;;;;;;;;;;;;26.75;24.77;96746.59;173187;28;1105;-50
2022/02/01 00:39:42;;;;;;;;;;;;;;;26.79;24.61;96747.97;173032;28;1157;-50
2022/02/01 00:39:55;;;;;;;;;;;;;;;26.79;24.61;96742.69;173260;28;783;-51
2022/02/01 00:40:06;;;;;;;;;;;;;;;26.83;24.62;96743.22;172616;28;1081;-51
2022/02/01 00:40:13;;;;;;;;;;;;;;;26.79;24.61;96747.97;172648;28;885;-51
2022/02/01 00:40:18;;;;;;;;;;;;;;;26.80;24.84;96747.00;172689;28;1144;-50
2022/02/01 00:40:23;;;;;;;;;;;;;;;26.81;24.63;96745.19;173486;28;841;-50
2022/02/01 00:40:29;;;;;;;;;;;;;;;26.82;24.60;96741.56;173827;28;1184;-50
2022/02/01 00:40:34;;;;;;;;;;;;;;;26.81;24.86;96745.19;173237;28;888;-48
2022/02/01 00:40:39;;;;;;;;;;;;;;;26.78;24.78;96741.03;173289;28;806;-49
2022/02/01 00:40:53;;;;;;;;;;;;;;;26.73;24.70;96747.75;173112;28;1204;-50
2022/02/01 00:41:04;;;;;;;;;;;;;;;26.75;24.60;96748.41;173253;28;842;-51
2022/02/01 00:41:11;;;;;;;;;;;;;;;26.78;24.84;96751.63;173242;28;850;-49
2022/02/01 00:41:18;;;;;;;;;;;;;;;26.77;24.77;96742.00;173235;28;1180;-51
2022/02/01 00:41:28;;;;;;;;;;;;;;;26.79;24.70;96744.50;172531;28;910;-51
2022/02/01 00:41:36;;;;;;;;;;;;;;;26.79;24.91;96747.97;172531;28;865;-49
2022/02/01 00:41:50;;;;;;;;;;;;;;;26.77;24.72;96743.81;172787;28;1229;-50
2022/02/01 00:41:55;;;;;;;;;;;;;;;26.78;24.59;96741.03;172810;28;4417;-50
2022/02/01 00:42:00;;;;;;;;;;;;;;;26.77;24.74;96744.63;173074;28;1172;-51
2022/02/01 00:42:06;;;;;;;;;;;;;;;26.75;24.86;96738.66;173167;28;1148;-50
2022/02/01 00:42:11;;;;;;;;;;;;;;;26.77;24.89;96747.28;173184;28;802;-49
2022/02/01 00:42:17;;;;;;;;;;;;;;;26.78;24.74;96742.81;173471;28;1249;-50
2022/02/01 00:42:22;;;;;;;;;;;;;;;26.80;24.86;96747.00;173958;28;865;-49
2022/02/01 00:42:27;;;;;;;;;;;;;;;26.81;24.58;96750.47;174126;28;1168;-49
2022/02/01 00:42:32;;;;;;;;;;;;;;;26.83;24.86;96749.34;174688;28;924;-50
2022/02/01 00:42:37;;;;;;;;;;;;;;;26.83;24.77;96744.03;174669;28;881;-51
2022/02/01 00:42:43;;;;;;;;;;;;;;;26.84;24.55;96748.34;174585;28;1300;-49
2022/02/01 00:42:48;;;;;;;;;;;;;;;26.86;24.60;96745.56;174609;28;885;-49
2022/02/01 00:42:53;;;;;;;;;;;;;;;26.85;24.55;96751.84;174599;28;1096;-52
2022/02/01 00:42:58;;;;;;;;;;;;;;;26.85;24.72;96746.53;174736;28;861;-51
2022/02/01 00:43:05;;;;;;;;;;;;;;;26.85;24.78;96757.13;174186;28;1140;-49
2022/02/01 00:43:12;;;;;;;;;;;;;;;26.82;24.84;96747.69;174382;28;746;-50
2022/02/01 00:43:17;;;;;;;;;;;;;;;26.85;24.53;96750.00;174638;28;1180;-49
2022/02/01 00:43:22;;;;;;;;;;;;;;;26.85;24.74;96751.84;174740;28;848;-50
2022/02/01 00:43:27;;;;;;;;;;;;;;;26.83;24.89;96754.63;174624;28;1155;-51
2022/02/01 00:43:33;;;;;;;;;;;;;;;26.81;24.70;96743.38;174732;28;889;-52
2022/02/01 00:43:38;;;;;;;;;;;;;;;26.83;24.76;96751.16;174597;28;958;-48
2022/02/01 00:43:43;;;;;;;;;;;;;;;26.83;24.92;96746.69;174638;28;797;-50
2022/02/01 00:43:48;;;;;;;;;;;;;;;26.84;24.60;96753.66;174651;28;904;-49
2022/02/01 00:43:53;;;;;;;;;;;;;;;26.86;24.54;96748.19;174545;28;1357;-48
2022/02/01 00:43:59;;;;;;;;;;;;;;;26.86;24.52;96749.06;174095;28;854;-51
2022/02/01 00:44:05;;;;;;;;;;;;;;;26.86;24.55;96748.19;174523;28;1223;-51
2022/02/01 00:44:10;;;;;;;;;;;;;;;26.86;24.79;96751.72;174807;28;801;-49
2022/02/01 00:44:16;;;;;;;;;;;;;;;26.86;24.75;96754.34;174653;28;1180;-49
2022/02/01 00:44:22;;;;;;;;;;;;;;;26.87;24.84;96760.47;174745;28;876;-50
2022/02/01 00:44:27;;;;;;;;;;;;;;;26.86;24.60;96749.06;174752;28;1175;-49
2022/02/01 00:44:32;;;;;;;;;;;;;;;26.84;24.80;96747.53;174672;28;750;-50
2022/02/01 00:44:38;;;;;;;;;;;;;;;26.82;24.71;96752.13;174625;28;1140;-51
2022/02/01 00:44:43;;;;;;;;;;;;;;;26.80;24.78;96747.00;174642;28;798;-51
2022/02/01 00:44:48;;;;;;;;;;;;;;;26.81;24.71;96739.91;174578;28;1171;-50
2022/02/01 00:44:53;;;;;;;;;;;;;;;26.82;24.89;96742.38;174674;28;869;-50
2022/02/01 00:44:59;;;;;;;;;;;;;;;26.83;24.90;96743.22;174066;28;848;-50
2022/02/01 00:45:04;;;;;;;;;;;;;;;26.80;24.73;96747.00;174366;28;1173;-50
2022/02/01 00:45:09;;;;;;;;;;;;;;;26.80;24.96;96748.81;174694;28;809;-50
2022/02/01 00:45:14;;;;;;;;;;;;;;;26.81;24.87;96746.03;174700;28;1151;-50
2022/02/01 00:45:20;;;;;;;;;;;;;;;26.81;24.90;96748.66;174717;28;865;-50
2022/02/01 00:45:25;;;;;;;;;;;;;;;26.83;24.90;96749.34;174717;28;1155;-51
2022/02/01 00:45:30;;;;;;;;;;;;;;;26.84;24.85;96750.16;173937;28;892;-50
2022/02/01 00:45:35;;;;;;;;;;;;;;;26.83;24.69;96746.69;173893;28;1133;-50
2022/02/01 00:45:40;;;;;;;;;;;;;;;26.82;24.55;96752.97;174056;28;797;-50
2022/02/01 00:45:46;;;;;;;;;;;;;;;26.80;24.76;96749.66;172718;28;4420;-51
2022/02/01 00:45:51;;;;;;;;;;;;;;;26.82;24.63;96752.13;173806;28;1311;-51
2022/02/01 00:46:00;;;;;;;;;;;;;;;26.79;24.78;96747.97;174003;28;864;-50
2022/02/01 00:46:05;;;;;;;;;;;;;;;26.81;24.84;96742.53;173256;28;921;-51
2022/02/01 00:46:10;;;;;;;;;;;;;;;26.81;24.71;96745.19;173287;28;1193;-49
2022/02/01 00:46:15;;;;;;;;;;;;;;;26.83;24.92;96743.22;173255;28;1786;-51
2022/02/01 00:46:20;;;;;;;;;;;;;;;26.85;24.88;96749.19;173333;28;948;-51
2022/02/01 00:46:26;;;;;;;;;;;;;;;26.82;24.84;96750.31;173693;28;1902;-49
2022/02/01 00:46:31;;;;;;;;;;;;;;;26.84;24.61;96748.34;173576;28;1582;-50
2022/02/01 00:46:36;;;;;;;;;;;;;;;26.85;24.91;96746.53;173841;28;1010;-50
2022/02/01 00:46:41;;;;;;;;;;;;;;;26.87;24.76;96750.72;173936;28;967;-49
2022/02/01 00:46:47;;;;;;;;;;;;;;;26.87;24.50;96748.06;173880;28;1234;-51
2022/02/01 00:46:52;;;;;;;;;;;;;;;26.86;24.82;96749.06;173891;28;794;-51
2022/02/01 00:46:57;;;;;;;;;;;;;;;26.86;24.50;96750.84;173921;28;978;-48
2022/02/01 00:47:03;;;;;;;;;;;;;;;26.85;24.50;96747.38;173869;28;1037;-50
2022/02/01 00:47:08;;;;;;;;;;;;;;;26.85;24.75;96752.66;173831;28;1300;-49
2022/02/01 00:47:13;;;;;;;;;;;;;;;26.88;24.79;96747.09;173333;28;1291;-49
2022/02/01 00:47:18;;;;;;;;;;;;;;;26.89;24.50;96745.28;173257;28;873;-51
2022/02/01 00:47:24;;;;;;;;;;;;;;;26.89;24.40;96748.75;173820;28;990;-52
2022/02/01 00:47:29;;;;;;;;;;;;;;;26.90;24.70;96750.41;174316;28;947;-50
2022/02/01 00:47:34;;;;;;;;;;;;;;;26.89;24.45;96748.75;174692;28;1140;-50
2022/02/01 00:47:42;;;;;;;;;;;;;;;26.88;24.65;96747.09;174746;28;872;-49
2022/02/01 00:47:47;;;;;;;;;;;;;;;26.89;24.80;96745.28;174267;28;1220;-50
2022/02/01 00:47:52;;;;;;;;;;;;;;;26.90;24.81;96749.59;174695;28;861;-50
2022/02/01 00:47:58;;;;;;;;;;;;;;;26.90;24.47;96747.78;174640;28;950;-50
2022/02/01 00:48:03;;;;;;;;;;;;;;;26.92;24.61;96748.44;174232;28;1380;-51
2022/02/01 00:48:08;;;;;;;;;;;;;;;26.92;24.77;96753.72;174505;28;958;-48
2022/02/01 00:48:14;;;;;;;;;;;;;;;26.92;24.80;96747.63;174088;28;785;-49
2022/02/01 00:48:19;;;;;;;;;;;;;;;26.91;24.65;96753.88;174627;28;793;-51
2022/02/01 00:48:24;;;;;;;;;;;;;;;26.89;24.50;96746.09;174030;28;979;-51
2022/02/01 00:48:29;;;;;;;;;;;;;;;26.90;24.62;96753.06;174007;28;936;-49
2022/02/01 00:48:35;;;;;;;;;;;;;;;26.90;24.50;96747.78;174503;28;1189;-50
2022/02/01 00:48:40;;;;;;;;;;;;;;;26.91;24.64;96752.06;174750;28;876;-48
2022/02/01 00:48:45;;;;;;;;;;;;;;;26.90;24.61;96752.22;174536;28;1037;-50
2022/02/01 00:48:50;;;;;;;;;;;;;;;26.90;24.81;96752.22;174684;28;825;-50
2022/02/01 00:48:56;;;;;;;;;;;;;;;26.88;24.60;96751.56;174543;28;1029;-51
2022/02/01 00:49:01;;;;;;;;;;;;;;;26.89;24.48;96751.41;174588;28;1199;-49
2022/02/01 00:49:06;;;;;;;;;;;;;;;26.90;24.83;96745.13;174689;28;714;-50
2022/02/01 00:49:11;;;;;;;;;;;;;;;26.92;24.55;96756.38;174652;28;1287;-50
2022/02/01 00:49:16;;;;;;;;;;;;;;;26.91;24.51;96754.72;174418;28;1512;-51
2022/02/01 00:49:22;;;;;;;;;;;;;;;26.93;24.79;96754.56;174435;28;946;-49
2022/02/01 00:49:28;;;;;;;;;;;;;;;26.93;24.66;96746.63;174111;28;878;-50
2022/02/01 00:49:35;;;;;;;;;;;;;;;26.93;24.44;96751.91;174480;28;1125;-49
2022/02/01 00:49:40;;;;;;;;;;;;;;;26.94;24.33;96754.44;174769;28;829;-50
2022/02/01 00:49:46;;;;;;;;;;;;;;;26.94;24.61;96756.25;174346;28;4332;-50
2022/02/01 00:49:51;;;;;;;;;;;;;;;26.94;24.27;96758.91;175409;28;782;-49
2022/02/01 00:49:56;;;;;;;;;;;;;;;26.94;24.34;96756.25;174955;28;1147;-49
2022/02/01 00:50:01;;;;;;;;;;;;;;;26.93;24.45;96750.09;173670;28;1153;-50
2022/02/01 00:50:08;;;;;;;;;;;;;;;26.93;24.65;96747.47;173769;28;1247;-51
2022/02/01 00:50:15;;;;;;;;;;;;;;;26.91;24.61;96751.25;174037;28;825;-50
2022/02/01 00:50:20;;;;;;;;;;;;;;;26.89;24.72;96756.69;174415;28;1196;-51
2022/02/01 00:50:26;;;;;;;;;;;;;;;26.88;24.48;96748.91;174681;28;829;-51
2022/02/01 00:50:31;;;;;;;;;;;;;;;26.88;24.82;96747.09;174280;28;1180;-50
2022/02/01 00:50:36;;;;;;;;;;;;;;;26.84;24.81;96751.00;173947;28;877;-50
2022/02/01 00:50:41;;;;;;;;;;;;;;;26.85;24.83;96751.84;173941;28;1176;-50
2022/02/01 00:50:47;;;;;;;;;;;;;;;26.85;24.56;96747.38;173899;28;850;-50
2022/02/01 00:50:52;;;;;;;;;;;;;;;26.85;24.67;96755.31;173867;28;822;-49
2022/02/01 00:50:57;;;;;;;;;;;;;;;26.83;24.54;96751.97;174101;28;1311;-50
2022/02/01 00:51:04;;;;;;;;;;;;;;;26.84;24.69;96751.00;173815;28;1129;-51
2022/02/01 00:51:12;;;;;;;;;;;;;;;26.84;24.67;96751.00;174638;28;1294;-48
2022/02/01 00:51:18;;;;;;;;;;;;;;;26.85;24.83;96751.84;174347;28;1112;-49
2022/02/01 00:51:23;;;;;;;;;;;;;;;26.83;24.50;96751.97;174011;28;556;-49
2022/02/01 00:51:28;;;;;;;;;;;;;;;26.83;24.85;96749.34;173381;28;1102;-50
2022/02/01 00:51:33;;;;;;;;;;;;;;;26.83;24.94;96754.63;173430;28;885;-49
2022/02/01 00:51:39;;;;;;;;;;;;;;;26.82;24.61;96752.97;173261;28;959;-49
2022/02/01 00:51:44;;;;;;;;;;;;;;;26.80;24.61;96748.81;173303;28;1164;-49
2022/02/01 00:51:49;;;;;;;;;;;;;;;26.80;24.95;96749.66;173233;28;813;-51
2022/02/01 00:51:54;;;;;;;;;;;;;;;26.82;24.84;96749.50;173195;28;1185;-51
2022/02/01 00:52:00;;;;;;;;;;;;;;;26.83;24.63;96745.88;173430;28;993;-49
2022/02/01 00:52:05;;;;;;;;;;;;;;;26.82;24.94;96752.97;173602;28;1165;-51
2022/02/01 00:52:11;;;;;;;;;;;;;;;26.83;24.80;96751.97;173299;28;802;-52
2022/02/01 00:52:16;;;;;;;;;;;;;;;26.84;24.72;96751.00;173248;28;1177;-49
2022/02/01 00:52:22;;;;;;;;;;;;;;;26.86;24.65;96748.19;173269;28;947;-49
2022/02/01 00:52:29;;;;;;;;;;;;;;;26.85;24.69;96747.38;173492;28;982;-49
2022/02/01 00:52:34;;;;;;;;;;;;;;;26.87;24.55;96756.00;173953;28;841;-49
2022/02/01 00:52:39;;;;;;;;;;;;;;;26.87;24.82;96756.00;173719;28;1173;-50
2022/02/01 00:52:44;;;;;;;;;;;;;;;26.87;24.53;96755.19;173736;28;877;-50
2022/02/01 00:52:50;;;;;;;;;;;;;;;26.86;24.55;96748.19;173905;28;786;-50
2022/02/01 00:52:55;;;;;;;;;;;;;;;26.88;24.49;96748.91;174374;28;1314;-51
2022/02/01 00:53:00;;;;;;;;;;;;;;;26.88;24.67;96751.56;173807;28;1125;-51
2022/02/01 00:53:05;;;;;;;;;;;;;;;26.86;24.56;96751.72;173902;28;1154;-49
2022/02/01 00:53:11;;;;;;;;;;;;;;;26.87;24.54;96757.84;174028;28;873;-50
2022/02/01 00:53:16;;;;;;;;;;;;;;;26.86;24.82;96750.84;173633;28;1188;-50
2022/02/01 00:53:27;;;;;;;;;;;;;;;26.87;24.52;96752.53;173262;28;839;-50
2022/02/01 00:53:32;;;;;;;;;;;;;;;26.87;24.76;96756.00;174720;28;952;-51
2022/02/01 00:53:39;;;;;;;;;;;;;;;26.87;24.59;96760.47;174702;28;1195;-51
2022/02/01 00:53:45;;;;;;;;;;;;;;;26.88;24.58;96755.03;174293;28;4354;-49
2022/02/01 00:53:50;;;;;;;;;;;;;;;26.90;24.58;96754.88;174569;28;1101;-49
2022/02/01 00:53:55;;;;;;;;;;;;;;;26.89;24.56;96748.75;174732;28;892;-49
2022/02/01 00:54:00;;;;;;;;;;;;;;;26.90;24.77;96752.22;174584;28;1125;-50
2022/02/01 00:54:06;;;;;;;;;;;;;;;26.91;24.38;96746.78;174613;28;1341;-49
2022/02/01 00:54:11;;;;;;;;;;;;;;;26.91;24.61;96753.88;174767;28;654;-50
2022/02/01 00:54:16;;;;;;;;;;;;;;;26.91;24.70;96752.06;174162;28;1172;-49
2022/02/01 00:54:21;;;;;;;;;;;;;;;26.89;24.50;96754.03;174533;28;906;-50
2022/02/01 00:54:27;;;;;;;;;;;;;;;26.89;24.72;96753.22;173986;28;1169;-51
2022/02/01 00:54:32;;;;;;;;;;;;;;;26.91;24.58;96752.06;173975;28;798;-50
2022/02/01 00:54:41;;;;;;;;;;;;;;;26.90;24.42;96750.41;173772;28;1077;-51
2022/02/01 00:54:46;;;;;;;;;;;;;;;26.90;24.45;96752.22;173865;28;801;-51
2022/02/01 00:54:51;;;;;;;;;;;;;;;26.88;24.69;96752.38;173919;28;1169;-50
2022/02/01 00:54:57;;;;;;;;;;;;;;;26.89;24.58;96755.84;173965;28;797;-51
2022/02/01 00:55:02;;;;;;;;;;;;;;;26.88;24.46;96756.84;173436;28;1323;-48
2022/02/01 00:55:07;;;;;;;;;;;;;;;26.88;24.84;96760.31;173262;28;961;-51
2022/02/01 00:55:13;;;;;;;;;;;;;;;26.88;24.79;96760.31;173511;28;1169;-52
2022/02/01 00:55:18;;;;;;;;;;;;;;;26.87;24.71;96756.00;173338;28;924;-49
2022/02/01 00:55:23;;;;;;;;;;;;;;;26.88;24.87;96756.84;173264;28;1220;-52
2022/02/01 00:55:28;;;;;;;;;;;;;;;26.90;24.50;96757.53;173992;28;853;-49
2022/02/01 00:55:33;;;;;;;;;;;;;;;26.90;24.72;96750.41;173995;28;995;-49
2022/02/01 00:55:39;;;;;;;;;;;;;;;26.88;24.61;96749.75;173932;28;1030;-51
2022/02/01 00:55:44;;;;;;;;;;;;;;;26.87;24.43;96750.72;173918;28;912;-49
2022/02/01 00:55:49;;;;;;;;;;;;;;;26.88;24.77;96752.38;173841;28;1232;-51
2022/02/01 00:55:55;;;;;;;;;;;;;;;26.89;24.60;96750.56;173951;28;880;-51
2022/02/01 00:56:00;;;;;;;;;;;;;;;26.89;24.49;96754.03;173770;28;1173;-50
2022/02/01 00:56:05;;;;;;;;;;;;;;;26.90;24.62;96755.72;173950;28;879;-51
2022/02/01 00:56:11;;;;;;;;;;;;;;;26.91;24.55;96753.88;173947;28;1018;-50
2022/02/01 00:56:16;;;;;;;;;;;;;;;26.91;24.65;96754.72;174007;28;813;-48
2022/02/01 00:56:21;;;;;;;;;;;;;;;26.91;24.74;96761.81;174007;28;833;-49
2022/02/01 00:56:26;;;;;;;;;;;;;;;26.90;24.61;96755.72;173886;28;1157;-51
2022/02/01 00:56:31;;;;;;;;;;;;;;;26.89;24.69;96754.03;174014;28;866;-52
2022/02/01 00:56:37;;;;;;;;;;;;;;;26.88;24.55;96754.19;174395;28;1137;-49
2022/02/01 00:56:42;;;;;;;;;;;;;;;26.89;24.48;96758.50;174639;28;1007;-49
2022/02/01 00:56:47;;;;;;;;;;;;;;;26.89;24.49;96754.03;174589;28;1255;-52
2022/02/01 00:56:53;;;;;;;;;;;;;;;26.89;24.84;96751.41;174757;28;813;-49
2022/02/01 00:56:58;;;;;;;;;;;;;;;26.87;24.46;96756.00;174666;28;1013;-49
2022/02/01 00:57:03;;;;;;;;;;;;;;;26.88;24.40;96757.69;174577;28;1128;-50
2022/02/01 00:57:11;;;;;;;;;;;;;;;26.87;24.67;96758.66;174669;28;1403;-51
2022/02/01 00:57:18;;;;;;;;;;;;;;;26.87;24.74;96761.31;174044;28;892;-51
2022/02/01 00:57:23;;;;;;;;;;;;;;;26.85;24.49;96757.13;173977;28;1089;-50
2022/02/01 00:57:28;;;;;;;;;;;;;;;26.82;24.81;96755.63;174083;28;891;-50
2022/02/01 00:57:33;;;;;;;;;;;;;;;26.84;24.81;96760.75;174018;28;892;-51
2022/02/01 00:57:39;;;;;;;;;;;;;;;26.85;24.48;96755.31;174735;28;869;-51
2022/02/01 00:57:44;;;;;;;;;;;;;;;26.87;24.74;96758.66;174205;28;4307;-49
2022/02/01 00:57:49;;;;;;;;;;;;;;;26.86;24.56;96764.94;174492;28;1241;-51
2022/02/01 00:57:54;;;;;;;;;;;;;;;26.87;24.86;96763.94;174687;28;806;-49
2022/02/01 00:57:59;;;;;;;;;;;;;;;26.88;24.48;96762.13;174564;28;1215;-49
2022/02/01 00:58:05;;;;;;;;;;;;;;;26.88;24.69;96759.50;174718;28;864;-50
2022/02/01 00:58:10;;;;;;;;;;;;;;;26.88;24.42;96757.69;174688;28;1077;-49
2022/02/01 00:58:17;;;;;;;;;;;;;;;26.85;24.63;96757.13;174217;28;1516;-50
2022/02/01 00:58:22;;;;;;;;;;;;;;;26.85;24.75;96755.31;174337;28;1045;-50
2022/02/01 00:58:27;;;;;;;;;;;;;;;26.86;24.83;96761.44;174792;28;801;-51
2022/02/01 00:58:32;;;;;;;;;;;;;;;26.86;24.83;96762.28;174591;28;981;-51
2022/02/01 00:58:38;;;;;;;;;;;;;;;26.88;24.56;96760.31;174731;28;852;-50
2022/02/01 00:58:45;;;;;;;;;;;;;;;26.88;24.87;96762.13;174623;28;1060;-50
2022/02/01 00:58:50;;;;;;;;;;;;;;;26.89;24.79;96756.69;174723;28;820;-50
2022/02/01 00:58:55;;;;;;;;;;;;;;;26.89;24.42;96763.78;174699;28;1028;-50
2022/02/01 00:59:00;;;;;;;;;;;;;;;26.89;24.48;96761.16;174541;28;973;-50
2022/02/01 00:59:06;;;;;;;;;;;;;;;26.90;24.66;96761.00;174745;28;917;-50
2022/02/01 00:59:11;;;;;;;;;;;;;;;26.90;24.70;96765.47;174623;28;1169;-50
2022/02/01 00:59:16;;;;;;;;;;;;;;;26.90;24.55;96761.00;174682;28;869;-49
2022/02/01 00:59:21;;;;;;;;;;;;;;;26.88;24.58;96762.13;174665;28;1148;-51
2022/02/01 00:59:26;;;;;;;;;;;;;;;26.86;24.78;96762.28;174700;28;880;-51
2022/02/01 00:59:32;;;;;;;;;;;;;;;26.88;24.81;96762.97;174660;28;1160;-51
2022/02/01 00:59:37;;;;;;;;;;;;;;;26.89;24.54;96763.78;174711;28;770;-50
2022/02/01 00:59:43;;;;;;;;;;;;;;;26.88;24.82;96759.50;174693;28;873;-50
2022/02/01 00:59:48;;;;;;;;;;;;;;;26.87;24.86;96761.31;173982;28;891;-49
2022/02/01 00:59:53;;;;;;;;;;;;;;;26.87;24.74;96766.59;174141;28;869;-49
2022/02/01 00:59:58;;;;;;;;;;;;;;;26.84;24.54;96761.59;174626;28;946;-49
2022/02/01 01:00:04;;;;;;;;;;;;;;;26.84;24.89;96761.59;174559;28;1092;-51
2022/02/01 01:00:10;;;;;;;;;;;;;;;26.84;24.64;96764.22;174648;28;1113;-51
2022/02/01 01:00:15;;;;;;;;;;;;;;;26.84;24.64;96764.22;174725;28;784;-51
2022/02/01 01:00:21;;;;;;;;;;;;;;;26.87;24.50;96760.47;174617;28;1116;-51
2022/02/01 01:00:26;;;;;;;;;;;;;;;26.87;24.74;96766.59;174724;28;1602;-48
2022/02/01 01:00:31;;;;;;;;;;;;;;;26.86;24.46;96770.22;174693;28;1148;-50
2022/02/01 01:00:36;;;;;;;;;;;;;;;26.86;24.62;96761.44;174710;28;881;-51
2022/02/01 01:00:41;;;;;;;;;;;;;;;26.85;24.69;96768.53;174337;28;1547;-50
2022/02/01 01:00:47;;;;;;;;;;;;;;;26.81;24.73;96772.47;174212;28;1607;-50
2022/02/01 01:00:52;;;;;;;;;;;;;;;26.80;24.83;96762.88;174578;28;893;-51
2022/02/01 01:00:57;;;;;;;;;;;;;;;26.79;24.87;96777.09;174587;28;887;-50
2022/02/01 01:01:02;;;;;;;;;;;;;;;26.82;24.58;96770.66;174552;28;1049;-50
2022/02/01 01:01:08;;;;;;;;;;;;;;;26.80;24.57;96773.47;174689;28;1187;-51
2022/02/01 01:01:13;;;;;;;;;;;;;;;26.83;24.88;96772.31;174792;28;713;-50
2022/02/01 01:01:18;;;;;;;;;;;;;;;26.84;24.68;96756.28;174644;28;951;-51
2022/02/01 01:01:24;;;;;;;;;;;;;;;26.85;24.72;96760.59;174699;28;833;-51
2022/02/01 01:01:29;;;;;;;;;;;;;;;26.85;24.61;96757.13;174630;28;1085;-49
2022/02/01 01:01:34;;;;;;;;;;;;;;;26.86;24.75;96767.59;174610;28;857;-49
2022/02/01 01:01:39;;;;;;;;;;;;;;;26.84;24.56;96772.16;174721;28;901;-51
2022/02/01 01:01:44;;;;;;;;;;;;;;;26.86;24.50;96769.38;174076;28;4332;-50
2022/02/01 01:01:50;;;;;;;;;;;;;;;26.86;24.76;96764.94;174649;28;1027;-52
2022/02/01 01:01:55;;;;;;;;;;;;;;;26.87;24.56;96766.59;174630;28;1215;-51
2022/02/01 01:02:00;;;;;;;;;;;;;;;26.87;24.49;96766.59;174540;28;1036;-48
2022/02/01 01:02:05;;;;;;;;;;;;;;;26.88;24.58;96770.06;174713;28;1159;-51
2022/02/01 01:02:10;;;;;;;;;;;;;;;26.87;24.76;96769.25;174710;28;924;-52
2022/02/01 01:02:16;;;;;;;;;;;;;;;26.87;24.72;96765.75;174644;28;957;-50
2022/02/01 01:02:21;;;;;;;;;;;;;;;26.87;24.75;96768.41;174744;28;838;-49
2022/02/01 01:02:26;;;;;;;;;;;;;;;26.87;24.60;96774.53;174758;28;809;-50
2022/02/01 01:02:31;;;;;;;;;;;;;;;26.87;24.62;96771.88;174621;28;1099;-52
2022/02/01 01:02:37;;;;;;;;;;;;;;;26.89;24.60;96769.91;174699;28;830;-50
2022/02/01 01:02:42;;;;;;;;;;;;;;;26.88;24.65;96768.25;174565;28;1088;-50
2022/02/01 01:02:47;;;;;;;;;;;;;;;26.90;24.75;96768.94;174598;28;953;-49
2022/02/01 01:02:52;;;;;;;;;;;;;;;26.90;24.40;96776.03;174663;28;1249;-49
2022/02/01 01:02:58;;;;;;;;;;;;;;;26.90;24.52;96766.28;174664;28;789;-51
2022/02/01 01:03:03;;;;;;;;;;;;;;;26.91;24.75;96777.69;174470;28;997;-49
2022/02/01 01:03:09;;;;;;;;;;;;;;;26.90;24.70;96774.22;174683;28;881;-50
2022/02/01 01:03:14;;;;;;;;;;;;;;;26.90;24.83;96770.75;174808;28;861;-48
2022/02/01 01:03:19;;;;;;;;;;;;;;;26.89;24.56;96767.28;174054;28;941;-50
2022/02/01 01:03:24;;;;;;;;;;;;;;;26.89;24.52;96775.22;173973;28;881;-50
2022/02/01 01:03:30;;;;;;;;;;;;;;;26.90;24.47;96768.09;174589;28;1188;-52
2022/02/01 01:03:35;;;;;;;;;;;;;;;26.91;24.39;96775.88;174626;28;987;-52
2022/02/01 01:03:41;;;;;;;;;;;;;;;26.92;24.51;96769.63;174674;28;1222;-48
2022/02/01 01:03:46;;;;;;;;;;;;;;;26.92;24.40;96772.25;173960;28;861;-48
2022/02/01 01:03:51;;;;;;;;;;;;;;;26.92;24.38;96772.25;174183;28;1175;-50
2022/02/01 01:03:57;;;;;;;;;;;;;;;26.91;24.30;96773.25;174759;28;817;-50
2022/02/01 01:04:02;;;;;;;;;;;;;;;26.93;24.70;96775.72;174523;28;1001;-51